Skip Navigation Links
NOAA logo - Click to go to the NOAA homepage
NOAA's National Weather Service
Alaska Aviation Weather Unit
  NWS logo - Click to go to the NWS homepage
Left Navbar Graphic     23 AKDT = 07 GMT

   
NOAA is celebrating 200 years of science, service, and stewardship. Visit the NOAA 200th celebration Web site to learn more.
USA.gov is the U.S. Government's official Web portal to all Federal, state and local government Web resources and services.
Facebook
NWS on Facebook

Important Change Regarding the AAWU Web Presence

 

Over the last several months, the AAWU has been working to navigate its webpages to a nationally supported server. Security, as well as other needs, have necessitated the change.  In the process, we have made an effort to enhance the functionality of our website, as well as some of our products. As of June 20, 2017, aawu.arh.noaa.gov will be discontinued. The new AAWU web address is weather.gov/aawu. It is now live and will run in-parallel with the old site until it is discontinued. Please send any feedback or questions regarding the new webpages to nws.ar.aawu.webauthors@noaa.gov.  Thank you for your patience during this time of transition.
AAWU Home :: Display TAF Add Bookmark
TAF CYPR 240638Z 2407/2419 29010G20KT P6SM SCT015 OVC030 TEMPO
     2407/2419 5SM -SHRA BR BKN015 OVC030
    RMK FCST BASED ON AUTO OBS. NXT FCST BY 241300Z=

METAR CYPR 240100Z AUTO 26008G15KT 220V300 9SM OVC009 09/09 A2995 RMK SLP146= METAR CYPR 240200Z AUTO 28013G19KT 250V310 9SM BKN009 OVC034 09/08 A2996 RMK SLP148= SPECI CYPR 240208Z AUTO 28013G21KT 250V320 9SM SCT009 OVC034 09/08 A2996 RMK SLP148= METAR CYPR 240300Z AUTO 29011G19KT 250V310 9SM SCT029 SCT036 OVC060 09/08 A2998 RMK SLP153= METAR CYPR 240400Z AUTO 29009G16KT 260V320 9SM FEW011 BKN037 BKN044 OVC055 09/08 A2999 RMK SLP158= SPECI CYPR 240450Z AUTO 29007KT 260V320 9SM BKN019 OVC036 09/08 A3001 RMK SLP165= METAR CYPR 240500Z AUTO 29007KT 250V320 9SM BKN019 OVC036 09/08 A3001 RMK SLP166= SPECI CYPR 240507Z AUTO 29006KT 250V330 9SM -RA BKN019 OVC034 09/08 A3002 RMK SLP167= SPECI CYPR 240559Z AUTO 30010G16KT 260V340 9SM -RA SCT015 OVC030 09/08 A3003 RMK SLP171= METAR CYPR 240600Z AUTO 29009G16KT 260V340 9SM -RA SCT015 OVC030 09/08 A3003 RMK SLP171= SPECI CYPR 240605Z AUTO 29008G16KT 270V340 9SM SCT015 OVC030 09/08 A3003 RMK SLP173= METAR CYPR 240700Z AUTO 00000KT 9SM FEW019 OVC036 09/07 A3005 RMK SLP177=
 Alaska TAF Map

NOAA's National Weather Service
Alaska Aviation Weather Unit
6930 Sand Lake Road
Anchorage, AK 99502-1845
Disclaimer
Credits
Glossary
Privacy Policy
About Us
Career Opportunities
Contact AAWU Internet Services Site last modified: April, 17th 2012